Flugplatz Beilngries

Für EDNC sind keine METAR/TAF Berichte vorhanden.
Es werden die Flugwettermeldungen vom Flugplatz Hohenfels Army Air Field in 33 km Entfernung angezeigt.

Bericht für ETIH

vom 27.09. um 00:56 UTC

Wind 4 kt aus 200°

Sichtweite 10 km oder mehr

bedeckt in 1300 ft

Temperatur 6.5°C

Taupunkt 4.7°C

Luftfeuchtigkeit 88%

Luftdruck 1001 hPa

ETIH 270056Z AUTO 20004KT 9999 OVC013 07/05 A2956 RMK AO2 OVC V BKN SLP020 T00650047
Keine Prognose (TAF) verfügbar.
Impressum